Dež Od: 25-11-2017 07:00 Do: 26-11-2017 07:59 Opozorilo za: Dež Stopnja: Rumena info button

Možne so izdatnejše padavine. Količina padavin : od 50 do 85 mm/24h. Vodotoki lahko poplavljajo ob strugah na območju pogostih poplav. Verjetne so motnje v prometu in pri oskrbi z električno energijo in pitno vodo. Možni so zemeljski plazovi. Iz nižjih prostorov in kleti umaknite hrano, premičnine, dokumente, denar in druge dragocenosti. Izklopite elektriko, plin in vodovod. Ne skušajte prečkati vodnega toka. Bodite previdni pri uživanju hrane in vode. Spremljajte trend vodostaja in meteorološka ter hidrološka obvestila in opozorila ter informacije, ki jih posredujejo pristojne službe in organi.

Nevihte Od: 25-11-2017 15:00 Do: 23:59 Opozorilo za: Nevihte Stopnja: Rumena info button

Možne so krajevne nevihte. Lokalno možni močnejši nalivi, piš vetra in udari strel. Hitro lahko narastejo hudourniški vodotoki. Bodite pozorni na bližajoče se nevihtne oblake. Med nevihto se ne zadržujte na izpostavljenih mestih, počakajte na varnem mestu, nevihta običajno ne traja dolgo.

Veter Od: 25-11-2017 12:00 Do: 21:59 Opozorilo za: Veter Stopnja: Rumena info button

Maksimalna hitrost vetra : od 70 do 85 km/h. Veter maje drevesa in lahko že lomi veje. Ovira cestni promet določenih kategorij in lahko že nekoliko otežuje gibanje. Morje je zmerno vzvalovano (3). Vrata in okna naj bodo zaprta. Na prostem se ne zadržujte na potencialno nevarnih mestih. Priporočamo dodatno previdnost v prometu. Priporočamo previdnost na morju.

METAR v bližini

 

LIPQ - Ronchi Legionari, Italy
Oddaljenost od postaje: JZ 35km
Podatki zajeti: 25/11/2017 08:20
Rahlo dežuje, Meglice, Pretežno oblačno
Rahlo dežuje, Meglice, Pretežno oblačno
 Veter iz smeri SZ
Veter: SZ 4 km/h
Temperatura: 9°C
Temp. rosišča: 9°C
Vlažnost: 100%
Tlak: 1016 hPa
Stanje: Rahlo dežuje, Meglice
Oblačnost: Pretežno oblačno
Vidljivost: 2 km
Podrobnosti o oblakih: Delno oblačno 305 m
Pretežno oblačno 610 m
2017/11/25 07:20 LIPQ 250720Z 32002KT 2000 -RA BR SCT010 BKN020 09/09 Q1016
LIVT - Trieste, Italy
Oddaljenost od postaje: J 49km
Podatki zajeti: 25/11/2017 07:55
Meglice, Delno oblačno
Meglice, Delno oblačno
 Veter iz smeri calm
Veter: Tišina
Temperatura: 11°C
Temp. rosišča: 10°C
Vlažnost: 94%
Tlak: 1016 hPa
Stanje: Meglice
Oblačnost: Delno oblačno
Vidljivost: 3 km
Podrobnosti o oblakih: Pretežno oblačno 305 m
Delno oblačno 762 m
2017/11/25 06:55 LIVT 250655Z 00000KT 3000 BR BKN010 SCT025 11/10 Q1016 RMK OVC QUK 0 QUL 0 VIS MAR 3 KM VIS MIN 3000
 
LIVO - Tarvisio, Italy
Oddaljenost od postaje: SSZ 49km
Podatki zajeti: 25/11/2017 07:55
Pretežno oblačno
Pretežno oblačno
 Veter iz smeri SZ
Veter: SZ 15 km/h
Temperatura: 6°C
Občutek mraza zaradi vetra: 3°C
Temp. rosišča: 4°C
Vlažnost: 87%
Tlak: 1014 hPa
Oblačnost: Pretežno oblačno
Vidljivost: 10 km
Podrobnosti o oblakih: Pretežno oblačno 762 m
2017/11/25 06:55 LIVO 250655Z 31008KT 9999 BKN025 06/04 Q1014 RMK BKN VIS MIN 9999
LIPI - Rivolto (it-Afb), Italy
Oddaljenost od postaje: ZJZ 57km
Podatki zajeti: 24/11/2017 11:55
Ni posodobljen
Delno oblačno
Delno oblačno
 Veter iz smeri spremenljiv
Veter: spremenljiv 0 km/h
Temperatura: 12°C
Temp. rosišča: 7°C
Vlažnost: 72%
Tlak: 1021 hPa
Oblačnost: Delno oblačno
Vidljivost: 9 km
Podrobnosti o oblakih: Delno oblačno 762 m
Delno oblačno 2438 m
2017/11/24 10:55 LIPI 241055Z /////KT 9000 SCT025 SCT080 12/07 Q1021 RMK BKN VIS MIN 9000 WIND THR06 VRB02KT WIND THR24 VRB02KT BLU
 
LJLJ - Ljubljana/Brnik, Slovenia
Oddaljenost od postaje: VSV 59km
Podatki zajeti: 25/11/2017 08:00
Oblačno
Oblačno
 Veter iz smeri SZ
Veter: SZ 7 km/h
Temperatura: 6°C
Občutek mraza zaradi vetra: 4°C
Temp. rosišča: 5°C
Vlažnost: 93%
Tlak: 1015 hPa
Oblačnost: Oblačno
Vidljivost: 10 km
Podrobnosti o oblakih: Oblačno 762 m
2017/11/25 07:00 LJLJ 250700Z 31004KT 9999 OVC025 06/05 Q1015 NOSIG
LJPZ - Portoroz, Slovenia
Oddaljenost od postaje: J 68km
Podatki zajeti: 25/11/2017 08:00
Meglice, Oblačno
Meglice, Oblačno
 Veter iz smeri spremenljiv
Veter: spremenljiv 2 km/h
Temperatura: 11°C
Temp. rosišča: 10°C
Vlažnost: 94%
Tlak: 1016 hPa
Stanje: Meglice
Oblačnost: Oblačno
Vidljivost: 3 km
Podrobnosti o oblakih: Rahlo oblačno 366 m
Delno oblačno 610 m
Oblačno 2134 m
2017/11/25 07:00 LJPZ 250700Z VRB01KT 3000 BR FEW012 SCT020 OVC070 11/10 Q1016
 
LOWK - Klagenfurt(Civ/M, Austria
Oddaljenost od postaje: SV 78km
Podatki zajeti: 25/11/2017 08:20
Freezing patches of, Megla, Pretežno oblačno
Freezing patches of, Megla, Pretežno oblačno
 Veter iz smeri spremenljiv
Veter: spremenljiv 2 km/h
Temperatura: -1°C
Temp. rosišča: -1°C
Vlažnost: 100%
Tlak: 1014 hPa
Stanje: Freezing patches of, Megla
Oblačnost: Pretežno oblačno
Vidljivost: 1 km
Podrobnosti o oblakih: Rahlo oblačno 30 m
Pretežno oblačno 61 m
2017/11/25 07:20 LOWK 250720Z VRB01KT 0700 R10/1200U R28/0550N FZBCFG FEW001 BKN002 M01/M01 Q1014 BECMG 1200 BCFG SCT002 BKN200
LIYW - Aviano (usaf), Italy
Oddaljenost od postaje: Z 86km
Podatki zajeti: 20/10/2015 15:58
Ni posodobljen
Jasno
Jasno
 Veter iz smeri JJZ
Veter: JJZ 6 km/h
Temperatura: 17°C
Temp. rosišča: 3°C
Vlažnost: 39%
Tlak: 1016.3 hPa
Oblačnost: Jasno
Vidljivost: 10 km
2015/10/20 13:58 LIYW 201358Z AUTO 21003KT 9999 CLR 17/03 A3001 RMK AO2 SLP167 T01660029
 
LIPA - Aviano (it/Us-Af, Italy
Oddaljenost od postaje: Z 89km
Podatki zajeti: 25/11/2017 07:55
Meglice, Pretežno oblačno
Meglice, Pretežno oblačno
 Veter iz smeri SSV
Veter: SSV 4 km/h
Temperatura: 8°C
Temp. rosišča: 7°C
Vlažnost: 93%
Tlak: 1017 hPa
Stanje: Meglice
Oblačnost: Pretežno oblačno
Vidljivost: 2 km
Podrobnosti o oblakih: Delno oblačno 1067 m
Pretežno oblačno 2438 m
2017/11/25 06:55 LIPA 250655Z 03002KT 2400 BR SCT035 BKN080 08/07 Q1017 RMK OVC VIS MIN 2400 WIND THR05 /////KT WIND THR23 /////KT A3004 YLO
LDRI - Rijeka/Omisalj, Croatia
Oddaljenost od postaje: JV 115km
Podatki zajeti: 25/11/2017 08:30
Rahlo dežuje, Plitva megla, Megla, Oblačno
Rahlo dežuje, Plitva megla, Megla, Oblačno
 Veter iz smeri JJV
Veter: JJV 11 km/h
Temperatura: 13°C
Temp. rosišča: 12°C
Vlažnost: 94%
Tlak: 1017 hPa
Stanje: Rahlo dežuje, Plitva megla, Megla
Oblačnost: Oblačno
Vidljivost: 7 km
Podrobnosti o oblakih: Rahlo oblačno 518 m
Delno oblačno 823 m
Oblačno 914 m
2017/11/25 07:30 LDRI 250730Z 15006KT 7000 -RA MIFG FEW017 SCT027 OVC030 13/12 Q1017
 
LIPZ - Venezia/Tessera, Italy
Oddaljenost od postaje: ZJZ 127km
Podatki zajeti: 25/11/2017 08:20
Meglice, Pretežno oblačno
Meglice, Pretežno oblačno
 Veter iz smeri SV
Veter: SV 11 km/h
Temperatura: 8°C
Občutek mraza zaradi vetra: 6°C
Temp. rosišča: 7°C
Vlažnost: 93%
Tlak: 1016 hPa
Stanje: Meglice
Oblačnost: Pretežno oblačno
Vidljivost: 3 km
Podrobnosti o oblakih: Rahlo oblačno 457 m
Pretežno oblačno 1707 m
2017/11/25 07:20 LIPZ 250720Z 04006KT 2700 BR FEW015 BKN056 08/07 Q1016 BECMG 4000 BR
LDPL - Pula, Croatia
Oddaljenost od postaje: J 133km
Podatki zajeti: 25/11/2017 08:30
Plitva megla, Meglice, Rahlo oblačno
Plitva megla, Meglice, Rahlo oblačno
 Veter iz smeri J
Veter: J 6 km/h
Temperatura: 12°C
Temp. rosišča: 11°C
Vlažnost: 94%
Tlak: 1017 hPa
Stanje: Plitva megla, Meglice
Oblačnost: Rahlo oblačno
Vidljivost: 5 km
Podrobnosti o oblakih: Rahlo oblačno 213 m
2017/11/25 07:30 LDPL 250730Z 19003KT 130V240 5000 MIFG BR FEW007 12/11 Q1017 BECMG 21015KT
 
LIPS - Istrana (it-Afb), Italy
Oddaljenost od postaje: ZJZ 136km
Podatki zajeti: 25/11/2017 07:55
Meglice, Oblačno
Meglice, Oblačno
 Veter iz smeri SV
Veter: SV 7 km/h
Temperatura: 8°C
Občutek mraza zaradi vetra: 7°C
Temp. rosišča: 7°C
Vlažnost: 93%
Tlak: 1016 hPa
Stanje: Meglice
Oblačnost: Oblačno
Vidljivost: 3 km
Podrobnosti o oblakih: Oblačno 914 m
2017/11/25 06:55 LIPS 250655Z 05004KT 2500 BR OVC030 08/07 Q1016 RMK OVC VIS MIN 2500 WIND THR26 00000KT WIND THR08 05003KT YLO
LIVD - Dobbiaco, Italy
Oddaljenost od postaje: ZSZ 137km
Podatki zajeti: 25/11/2017 07:55
Pretežno oblačno
Pretežno oblačno
 Veter iz smeri Z
Veter: Z 2 km/h
Temperatura: 1°C
Temp. rosišča: 0°C
Vlažnost: 93%
Tlak: 1015 hPa
Oblačnost: Pretežno oblačno
Vidljivost: 10 km
Podrobnosti o oblakih: Pretežno oblačno 914 m
2017/11/25 06:55 LIVD 250655Z 26001KT 9999 BKN030 01/M00 Q1015 RMK BKN VIS MIN 9999
 
LJCE - Cerklje, Slovenia
Oddaljenost od postaje: V 139km
Podatki zajeti: 25/11/2017 08:00
Jasno
Jasno
 Veter iz smeri calm
Veter: Tišina
Temperatura: 5°C
Temp. rosišča: 4°C
Vlažnost: 93%
Tlak: 1015 hPa
Stanje: Jasno
Vidljivost: večja od 10 km
2017/11/25 07:00 LJCE 250700Z 00000KT CAVOK 05/04 Q1015
LOXZ - Zeltweg (mil), Austria
Oddaljenost od postaje: SSV 147km
Podatki zajeti: 25/11/2017 07:50
Delno oblačno
Delno oblačno
 Veter iz smeri ZJZ
Veter: ZJZ 4 km/h
Temperatura: -2°C
Temp. rosišča: -3°C
Vlažnost: 93%
Tlak: 1013 hPa
Oblačnost: Delno oblačno
Podrobnosti o oblakih: Rahlo oblačno 3962 m
Delno oblačno 8534 m
2017/11/25 06:50 LOXZ 250650Z 25002KT 20KM FEW130AC SCT280CI M02/M03 Q1013